createdAt,value
2018-03-19T00:01:12.476Z,92551.66
2018-03-19T00:03:40.024Z,92554.98
2018-03-19T00:06:07.574Z,92557.40
2018-03-19T00:08:35.152Z,92559.93
2018-03-19T00:11:02.703Z,92564.69
2018-03-19T00:13:30.246Z,92563.50
2018-03-19T00:15:57.820Z,92570.59
2018-03-19T00:18:25.357Z,92579.38
2018-03-19T00:20:52.907Z,92583.64
2018-03-19T00:23:20.630Z,92600.32
2018-03-19T00:25:48.175Z,92590.70
2018-03-19T00:28:15.728Z,92587.61
2018-03-19T00:30:43.305Z,92577.45
2018-03-19T00:33:10.859Z,92562.09
2018-03-19T00:35:38.421Z,92567.00
2018-03-19T00:38:06.159Z,92573.28
2018-03-19T00:40:33.743Z,92582.34
2018-03-19T00:43:01.331Z,92587.88
2018-03-19T00:45:29.030Z,92585.70
2018-03-19T00:47:56.603Z,92583.19
2018-03-19T00:50:24.151Z,92578.53
2018-03-19T00:52:51.749Z,92584.36
2018-03-19T00:55:19.304Z,92575.19
2018-03-19T00:57:46.854Z,92568.39
2018-03-19T01:00:14.574Z,92562.95
2018-03-19T01:02:42.122Z,92572.88
2018-03-19T01:05:09.675Z,92574.07
2018-03-19T01:07:37.399Z,92570.38
2018-03-19T01:10:04.970Z,92574.44
2018-03-19T01:12:32.511Z,92574.87
2018-03-19T01:15:00.393Z,92561.25
2018-03-19T01:17:27.937Z,92567.05
2018-03-19T01:19:55.480Z,92560.66
2018-03-19T01:22:23.095Z,92559.11
2018-03-19T01:24:50.658Z,92554.03
2018-03-19T01:27:18.216Z,92557.44
2018-03-19T01:29:46.036Z,92551.52
2018-03-19T01:32:13.613Z,92534.16
2018-03-19T01:34:41.156Z,92538.45
2018-03-19T01:37:08.733Z,92543.02
2018-03-19T01:39:36.274Z,92547.23
2018-03-19T01:42:03.825Z,92526.91
2018-03-19T01:44:31.558Z,92525.64
2018-03-19T01:46:59.106Z,92521.17
2018-03-19T01:49:26.654Z,92526.84
2018-03-19T01:51:54.247Z,92530.98
2018-03-19T01:54:21.805Z,92523.17
2018-03-19T01:56:49.356Z,92524.52
2018-03-19T01:59:16.930Z,92535.09
2018-03-19T02:01:44.489Z,92535.48
2018-03-19T02:04:12.029Z,92545.38
2018-03-19T02:06:39.737Z,92541.41
2018-03-19T02:09:07.332Z,92542.47
2018-03-19T02:11:34.901Z,92525.25
2018-03-19T02:14:02.508Z,92537.19
2018-03-19T02:16:30.043Z,92533.55
2018-03-19T02:18:57.586Z,92536.03
2018-03-19T02:21:25.159Z,92542.24
2018-03-19T02:23:52.703Z,92537.16
2018-03-19T02:26:20.246Z,92535.34
2018-03-19T02:28:47.839Z,92529.92
2018-03-19T02:31:15.384Z,92534.29
2018-03-19T02:33:42.951Z,92533.59
2018-03-19T02:36:10.529Z,92533.43
2018-03-19T02:38:38.083Z,92536.09
2018-03-19T02:41:05.636Z,92529.80
2018-03-19T02:43:33.232Z,92534.52
2018-03-19T02:46:00.782Z,92537.09
2018-03-19T02:48:28.334Z,92542.98
2018-03-19T02:50:56.042Z,92541.59
2018-03-19T02:53:23.598Z,92545.91
2018-03-19T02:55:51.141Z,92543.40
2018-03-19T02:58:18.991Z,92552.86
2018-03-19T03:00:46.551Z,92547.37
2018-03-19T03:03:14.110Z,92548.95
2018-03-19T03:05:41.683Z,92537.21
2018-03-19T03:08:09.229Z,92539.32
2018-03-19T03:10:36.769Z,92534.88
2018-03-19T03:13:04.649Z,92532.44
2018-03-19T03:15:32.180Z,92532.93
2018-03-19T03:17:59.727Z,92532.61
2018-03-19T03:20:27.304Z,92535.44
2018-03-19T03:22:54.881Z,92544.31
2018-03-19T03:25:22.423Z,92536.92
2018-03-19T03:27:50.029Z,92538.45
2018-03-19T03:30:17.585Z,92529.04
2018-03-19T03:32:45.133Z,92521.40
2018-03-19T03:35:12.731Z,92519.78
2018-03-19T03:37:40.284Z,92526.48
2018-03-19T03:40:07.839Z,92521.73
2018-03-19T03:42:35.570Z,92514.54
2018-03-19T03:45:03.135Z,92511.63
2018-03-19T03:47:30.695Z,92514.89
2018-03-19T03:49:58.423Z,92515.89
2018-03-19T03:52:25.972Z,92514.52
2018-03-19T03:54:53.560Z,92519.19
2018-03-19T03:57:21.135Z,92511.30
2018-03-19T03:59:48.683Z,92513.19
2018-03-19T04:02:16.238Z,92512.76
2018-03-19T04:04:43.967Z,92513.84
2018-03-19T04:07:11.521Z,92507.52
2018-03-19T04:09:39.067Z,92514.14
2018-03-19T04:12:06.643Z,92509.50
2018-03-19T04:14:34.181Z,92513.69
2018-03-19T04:17:01.813Z,92504.72
2018-03-19T04:19:29.338Z,92519.91
2018-03-19T04:21:56.898Z,92518.41
2018-03-19T04:24:24.449Z,92514.80
2018-03-19T04:26:52.030Z,92518.95
2018-03-19T04:29:19.642Z,92515.62
2018-03-19T04:31:47.196Z,92512.12
2018-03-19T04:34:14.778Z,92512.12
2018-03-19T04:36:42.343Z,92514.86
2018-03-19T04:39:09.894Z,92513.86
2018-03-19T04:41:37.498Z,92509.57
2018-03-19T04:44:05.048Z,92518.16
2018-03-19T04:46:32.619Z,92512.36
2018-03-19T04:49:00.295Z,92503.91
2018-03-19T04:51:27.871Z,92509.05
2018-03-19T04:53:55.435Z,92510.86
2018-03-19T04:56:22.980Z,92516.63
2018-03-19T04:58:50.544Z,92512.69
2018-03-19T05:01:18.119Z,92517.51
2018-03-19T05:03:45.663Z,92523.75
2018-03-19T05:06:13.228Z,92517.34
2018-03-19T05:08:40.961Z,92525.75
2018-03-19T05:11:08.522Z,92521.25
2018-03-19T05:13:36.134Z,92518.15
2018-03-19T05:16:03.866Z,92521.80
2018-03-19T05:18:31.432Z,92517.88
2018-03-19T05:20:58.991Z,92522.29
2018-03-19T05:23:26.565Z,92518.48
2018-03-19T05:25:54.124Z,92525.62
2018-03-19T05:28:21.783Z,92523.00
2018-03-19T05:30:49.454Z,92513.66
2018-03-19T05:33:17.010Z,92523.16
2018-03-19T05:35:44.599Z,92516.37
2018-03-19T05:38:12.207Z,92523.75
2018-03-19T05:40:39.784Z,92520.99
2018-03-19T05:43:07.343Z,92517.92
2018-03-19T05:45:35.075Z,92527.08
2018-03-19T05:48:02.621Z,92530.47
2018-03-19T05:50:30.166Z,92532.79
2018-03-19T05:52:57.745Z,92523.03
2018-03-19T05:55:25.295Z,92525.93
2018-03-19T05:57:52.863Z,92531.45
2018-03-19T06:00:20.616Z,92525.16
2018-03-19T06:02:48.175Z,92540.47
2018-03-19T06:05:15.725Z,92538.38
2018-03-19T06:07:43.422Z,92534.20
2018-03-19T06:10:10.963Z,92535.02
2018-03-19T06:12:38.518Z,92533.48
2018-03-19T06:15:06.455Z,92522.25
2018-03-19T06:17:34.008Z,92521.77
2018-03-19T06:20:01.602Z,92522.61
2018-03-19T06:22:29.327Z,92525.70
2018-03-19T06:24:56.879Z,92534.22
2018-03-19T06:27:24.426Z,92518.05
2018-03-19T06:29:52.028Z,92522.80
2018-03-19T06:32:19.569Z,92512.31
2018-03-19T06:34:47.114Z,92508.47
2018-03-19T06:37:14.849Z,92523.52
2018-03-19T06:39:42.408Z,92504.61
2018-03-19T06:42:09.958Z,92505.39
2018-03-19T06:44:37.719Z,92514.96
2018-03-19T06:47:05.255Z,92507.53
2018-03-19T06:49:32.811Z,92506.21
2018-03-19T06:52:00.767Z,92523.27
2018-03-19T06:54:28.305Z,92505.81
2018-03-19T06:56:55.859Z,92535.62
2018-03-19T06:59:23.604Z,92522.53
2018-03-19T07:01:51.150Z,92518.45
2018-03-19T07:04:18.706Z,92532.17
2018-03-19T07:06:46.370Z,92498.28
2018-03-19T07:09:13.926Z,92513.61
2018-03-19T07:11:41.466Z,92514.59
2018-03-19T07:14:09.046Z,92525.37
2018-03-19T07:16:36.588Z,92524.97
2018-03-19T07:19:04.154Z,92523.92
2018-03-19T07:21:31.722Z,92536.86
2018-03-19T07:23:59.263Z,92527.17
2018-03-19T07:26:26.857Z,92522.88
2018-03-19T07:28:54.511Z,92511.73
2018-03-19T07:31:22.054Z,92521.87
2018-03-19T07:33:49.628Z,92514.77
2018-03-19T07:36:17.367Z,92507.02
2018-03-19T07:38:44.910Z,92511.63
2018-03-19T07:41:12.470Z,92519.72
2018-03-19T07:43:40.185Z,92526.41
2018-03-19T07:46:07.730Z,92523.31
2018-03-19T07:48:35.316Z,92509.28
2018-03-19T07:51:02.913Z,92523.02
2018-03-19T07:53:30.473Z,92523.17
2018-03-19T07:55:58.012Z,92546.91
2018-03-19T07:58:25.582Z,92529.52
2018-03-19T08:00:53.138Z,92522.96
2018-03-19T08:03:20.678Z,92519.99
2018-03-19T08:05:48.411Z,92512.39
2018-03-19T08:08:15.922Z,92509.37
2018-03-19T08:10:43.460Z,92507.39
2018-03-19T08:13:11.035Z,92507.98
2018-03-19T08:15:38.585Z,92498.37
2018-03-19T08:18:06.127Z,92497.90
2018-03-19T08:20:33.716Z,92503.26
2018-03-19T08:23:01.266Z,92505.02
2018-03-19T08:25:28.831Z,92491.16
2018-03-19T08:27:56.551Z,92489.20
2018-03-19T08:30:24.130Z,92484.66
2018-03-19T08:32:51.692Z,92493.30
2018-03-19T08:35:19.372Z,92497.60
2018-03-19T08:37:46.900Z,92500.52
2018-03-19T08:40:14.435Z,92496.73
2018-03-19T08:42:42.355Z,92504.23
2018-03-19T08:45:09.905Z,92507.79
2018-03-19T08:47:37.453Z,92507.28
2018-03-19T08:50:05.053Z,92495.47
2018-03-19T08:52:32.597Z,92508.89
2018-03-19T08:55:00.150Z,92510.17
2018-03-19T08:57:27.704Z,92507.36
2018-03-19T08:59:55.242Z,92499.50
2018-03-19T09:02:22.821Z,92500.87
2018-03-19T09:04:50.358Z,92497.52
2018-03-19T09:07:17.964Z,92509.23
2018-03-19T09:09:45.623Z,92505.48
2018-03-19T09:12:13.162Z,92500.55
2018-03-19T09:14:40.704Z,92500.39
2018-03-19T09:17:08.283Z,92498.84
2018-03-19T09:19:35.822Z,92507.38
2018-03-19T09:22:03.362Z,92503.38
2018-03-19T09:24:31.082Z,92514.06
2018-03-19T09:26:58.631Z,92525.03
2018-03-19T09:29:26.214Z,92510.61
2018-03-19T09:31:53.907Z,92519.40
2018-03-19T09:34:21.465Z,92516.87
2018-03-19T09:36:48.999Z,92515.52
2018-03-19T09:39:16.738Z,92514.27
2018-03-19T09:41:44.278Z,92504.48
2018-03-19T09:44:11.817Z,92506.55
2018-03-19T09:46:39.529Z,92502.70
2018-03-19T09:49:07.071Z,92496.03
2018-03-19T09:51:34.614Z,92492.09
2018-03-19T09:54:02.199Z,92502.92
2018-03-19T09:56:29.739Z,92487.10
2018-03-19T09:58:57.290Z,92478.00
2018-03-19T10:01:25.010Z,92480.59
2018-03-19T10:03:52.562Z,92487.45
2018-03-19T10:06:20.129Z,92493.34
2018-03-19T10:08:47.995Z,92494.09
2018-03-19T10:11:15.559Z,92500.14
2018-03-19T10:13:43.099Z,92496.17
2018-03-19T10:16:10.704Z,92490.69
2018-03-19T10:18:38.277Z,92495.35
2018-03-19T10:21:05.820Z,92488.22
2018-03-19T10:23:33.403Z,92495.75
2018-03-19T10:26:00.953Z,92492.38
2018-03-19T10:28:28.510Z,92480.91
2018-03-19T10:30:56.095Z,92468.54
2018-03-19T10:33:23.652Z,92479.16
2018-03-19T10:35:51.198Z,92482.45
2018-03-19T10:38:18.874Z,92473.34
2018-03-19T10:40:46.416Z,92467.23
2018-03-19T10:43:13.954Z,92455.19
2018-03-19T10:45:41.551Z,92464.67
2018-03-19T10:48:09.095Z,92455.50
2018-03-19T10:50:36.629Z,92441.94
2018-03-19T10:53:04.298Z,92453.88
2018-03-19T10:55:31.842Z,92463.83
2018-03-19T10:57:59.378Z,92442.03
2018-03-19T11:00:26.952Z,92442.34
2018-03-19T11:02:54.568Z,92448.29
2018-03-19T11:05:27.710Z,92438.34
2018-03-19T11:08:00.877Z,92436.71
2018-03-19T11:10:28.460Z,92424.41
2018-03-19T11:12:56.001Z,92434.88
2018-03-19T11:15:23.543Z,92429.70
2018-03-19T11:17:51.243Z,92417.33
2018-03-19T11:20:19.694Z,92414.83
2018-03-19T11:22:47.242Z,92398.19
2018-03-19T11:25:14.963Z,92386.34
2018-03-19T11:27:42.515Z,92389.17
2018-03-19T11:30:10.109Z,92388.09
2018-03-19T11:32:37.833Z,92388.59
2018-03-19T11:35:05.376Z,92386.41
2018-03-19T11:37:32.936Z,92405.87
2018-03-19T11:40:00.598Z,92409.50
2018-03-19T11:42:28.152Z,92385.36
2018-03-19T11:44:55.688Z,92387.50
2018-03-19T11:47:23.369Z,92373.17
2018-03-19T11:49:50.915Z,92382.58
2018-03-19T11:52:18.459Z,92399.68
2018-03-19T11:54:46.053Z,92384.80
2018-03-19T11:57:14.043Z,92377.41
2018-03-19T11:59:41.603Z,92387.90
2018-03-19T12:02:09.294Z,92372.98
2018-03-19T12:04:36.848Z,92371.95
2018-03-19T12:07:04.395Z,92365.52
2018-03-19T12:09:31.959Z,92368.66
2018-03-19T12:11:59.492Z,92376.06
2018-03-19T12:14:27.023Z,92368.20
2018-03-19T12:16:54.597Z,92388.48
2018-03-19T12:19:22.167Z,92383.24
2018-03-19T12:21:49.711Z,92377.63
2018-03-19T12:24:18.458Z,92378.58
2018-03-19T12:26:45.996Z,92373.95
2018-03-19T12:29:13.558Z,92374.89
2018-03-19T12:31:41.144Z,92365.70
2018-03-19T12:34:08.704Z,92384.48
2018-03-19T12:36:36.297Z,92369.39
2018-03-19T12:39:04.056Z,92363.41
2018-03-19T12:41:31.597Z,92363.05
2018-03-19T12:43:59.143Z,92353.61
2018-03-19T12:46:26.729Z,92364.52
2018-03-19T12:48:54.296Z,92357.48
2018-03-19T12:51:21.863Z,92366.59
2018-03-19T12:53:49.454Z,92372.98
2018-03-19T12:56:17.034Z,92373.70
2018-03-19T12:58:44.576Z,92379.97
2018-03-19T13:01:12.179Z,92376.70
2018-03-19T13:03:39.747Z,92384.79
2018-03-19T13:06:07.286Z,92392.52
2018-03-19T13:08:34.890Z,92381.74
2018-03-19T13:11:02.433Z,92381.67
2018-03-19T13:13:30.275Z,92377.19
2018-03-19T13:15:57.853Z,92372.98
2018-03-19T13:18:25.395Z,92366.42
2018-03-19T13:20:52.989Z,92369.34
2018-03-19T13:23:20.587Z,92360.34
2018-03-19T13:25:48.134Z,92362.87
2018-03-19T13:28:15.677Z,92364.27
2018-03-19T13:30:43.309Z,92364.42
2018-03-19T13:33:10.870Z,92361.80
2018-03-19T13:35:38.432Z,92364.20
2018-03-19T13:38:06.165Z,92353.81
2018-03-19T13:40:33.716Z,92367.20
2018-03-19T13:43:01.270Z,92360.13
2018-03-19T13:45:28.850Z,92360.56
2018-03-19T13:47:56.394Z,92361.22
2018-03-19T13:50:23.955Z,92353.92
2018-03-19T13:52:51.640Z,92370.41
2018-03-19T13:55:19.211Z,92367.66
2018-03-19T13:57:46.767Z,92357.00
2018-03-19T14:00:14.370Z,92346.53
2018-03-19T14:02:41.916Z,92356.78
2018-03-19T14:05:09.468Z,92354.73
2018-03-19T14:07:37.343Z,92334.24
2018-03-19T14:10:04.908Z,92345.81
2018-03-19T14:12:32.464Z,92326.45
2018-03-19T14:15:00.173Z,92331.70
2018-03-19T14:17:27.724Z,92338.90
2018-03-19T14:19:55.276Z,92327.61
2018-03-19T14:22:22.972Z,92327.81
2018-03-19T14:24:50.513Z,92340.02
2018-03-19T14:27:18.054Z,92336.09
2018-03-19T14:29:45.661Z,92322.36
2018-03-19T14:32:13.203Z,92333.33
2018-03-19T14:34:40.751Z,92327.34
2018-03-19T14:37:08.337Z,92324.45
2018-03-19T14:39:35.874Z,92326.13
2018-03-19T14:42:03.430Z,92319.53
2018-03-19T14:44:31.003Z,92311.30
2018-03-19T14:46:58.574Z,92325.27
2018-03-19T14:49:26.129Z,92317.92
2018-03-19T14:51:53.848Z,92332.75
2018-03-19T14:54:21.390Z,92318.22
2018-03-19T14:56:48.935Z,92316.81
2018-03-19T14:59:18.097Z,92313.41
2018-03-19T15:01:45.643Z,92310.43
2018-03-19T15:04:13.207Z,92330.00
2018-03-19T15:06:41.121Z,92316.69
2018-03-19T15:09:08.656Z,92322.16
2018-03-19T15:11:36.229Z,92324.52
2018-03-19T15:14:03.845Z,92323.38
2018-03-19T15:16:31.389Z,92306.74
2018-03-19T15:18:58.966Z,92306.04
2018-03-19T15:21:26.654Z,92308.61
2018-03-19T15:23:54.198Z,92295.44
2018-03-19T15:26:21.764Z,92295.80
2018-03-19T15:28:49.350Z,92293.38
2018-03-19T15:31:16.956Z,92290.49
2018-03-19T15:33:44.491Z,92273.75
2018-03-19T15:36:12.203Z,92283.33
2018-03-19T15:38:39.767Z,92273.43
2018-03-19T15:41:07.323Z,92271.84
2018-03-19T15:43:35.041Z,92268.39
2018-03-19T15:46:02.588Z,92265.19
2018-03-19T15:48:30.139Z,92282.09
2018-03-19T15:50:57.729Z,92265.37
2018-03-19T15:53:25.273Z,92270.41
2018-03-19T15:55:52.831Z,92277.50
2018-03-19T15:58:20.380Z,92263.80
2018-03-19T16:00:47.922Z,92261.52
2018-03-19T16:03:15.506Z,92266.95
2018-03-19T16:05:43.080Z,92293.33
2018-03-19T16:08:10.615Z,92273.89
2018-03-19T16:10:38.328Z,92275.97
2018-03-19T16:13:05.871Z,92275.13
2018-03-19T16:15:33.425Z,92284.12
2018-03-19T16:18:01.014Z,92285.50
2018-03-19T16:20:28.590Z,92290.47
2018-03-19T16:22:56.122Z,92276.38
2018-03-19T16:25:23.698Z,92284.70
2018-03-19T16:27:51.298Z,92299.02
2018-03-19T16:30:18.827Z,92306.86
2018-03-19T16:32:46.412Z,92298.19
2018-03-19T16:35:13.958Z,92305.81
2018-03-19T16:37:41.503Z,92318.95
2018-03-19T16:40:09.083Z,92317.36
2018-03-19T16:42:36.640Z,92316.05
2018-03-19T16:45:04.215Z,92333.09
2018-03-19T16:47:31.803Z,92345.56
2018-03-19T16:49:59.358Z,92350.52
2018-03-19T16:52:26.922Z,92345.20
2018-03-19T16:54:54.610Z,92348.31
2018-03-19T16:57:22.161Z,92358.70
2018-03-19T16:59:49.714Z,92345.70
2018-03-19T17:02:17.617Z,92341.78
2018-03-19T17:04:45.176Z,92343.55
2018-03-19T17:07:12.744Z,92344.42
2018-03-19T17:09:40.458Z,92346.15
2018-03-19T17:12:08.025Z,92353.83
2018-03-19T17:14:35.584Z,92352.30
2018-03-19T17:17:03.170Z,92351.58
2018-03-19T17:19:30.744Z,92351.11
2018-03-19T17:21:58.307Z,92349.24
2018-03-19T17:24:25.903Z,92363.37
2018-03-19T17:26:53.455Z,92358.86
2018-03-19T17:29:21.034Z,92361.63
2018-03-19T17:31:48.723Z,92355.21
2018-03-19T17:34:16.291Z,92358.45
2018-03-19T17:36:43.856Z,92359.55
2018-03-19T17:39:11.575Z,92360.03
2018-03-19T17:41:39.140Z,92355.19
2018-03-19T17:44:06.702Z,92352.25
2018-03-19T17:46:34.331Z,92360.19
2018-03-19T17:49:01.877Z,92366.28
2018-03-19T17:51:29.443Z,92368.80
2018-03-19T17:53:57.175Z,92369.85
2018-03-19T17:56:24.724Z,92365.61
2018-03-19T17:58:52.296Z,92372.59
2018-03-19T18:01:20.049Z,92376.41
2018-03-19T18:03:47.591Z,92369.14
2018-03-19T18:06:15.143Z,92378.00
2018-03-19T18:08:42.736Z,92383.77
2018-03-19T18:11:10.274Z,92379.98
2018-03-19T18:13:37.835Z,92386.59
2018-03-19T18:16:05.712Z,92396.80
2018-03-19T18:18:33.256Z,92387.24
2018-03-19T18:21:00.799Z,92393.95
2018-03-19T18:23:28.482Z,92392.83
2018-03-19T18:25:56.069Z,92395.32
2018-03-19T18:28:23.600Z,92402.27
2018-03-19T18:30:51.319Z,92404.33
2018-03-19T18:33:18.871Z,92416.34
2018-03-19T18:35:46.490Z,92403.56
2018-03-19T18:38:14.103Z,92412.88
2018-03-19T18:40:41.660Z,92415.09
2018-03-19T18:43:09.230Z,92401.09
2018-03-19T18:45:36.964Z,92416.80
2018-03-19T18:48:04.530Z,92403.66
2018-03-19T18:50:32.088Z,92408.09
2018-03-19T18:52:59.682Z,92404.86
2018-03-19T18:55:27.242Z,92403.52
2018-03-19T18:57:54.796Z,92395.77
2018-03-19T19:00:22.548Z,92397.17
2018-03-19T19:02:50.200Z,92405.33
2018-03-19T19:05:17.763Z,92402.02
2018-03-19T19:07:45.515Z,92406.20
2018-03-19T19:10:13.082Z,92405.79
2018-03-19T19:12:40.730Z,92402.91
2018-03-19T19:15:08.495Z,92416.39
2018-03-19T19:17:36.067Z,92407.78
2018-03-19T19:20:03.715Z,92409.45
2018-03-19T19:22:31.276Z,92406.97
2018-03-19T19:24:58.819Z,92407.85
2018-03-19T19:27:26.361Z,92393.54
2018-03-19T19:29:54.003Z,92411.62
2018-03-19T19:32:21.571Z,92397.90
2018-03-19T19:34:49.124Z,92406.51
2018-03-19T19:37:16.714Z,92401.55
2018-03-19T19:39:44.262Z,92413.91
2018-03-19T19:42:11.815Z,92418.41
2018-03-19T19:44:39.677Z,92408.45
2018-03-19T19:47:07.230Z,92414.22
2018-03-19T19:49:34.796Z,92411.77
2018-03-19T19:52:02.689Z,92410.81
2018-03-19T19:54:30.229Z,92421.59
2018-03-19T19:56:57.775Z,92414.16
2018-03-19T19:59:25.520Z,92410.75
2018-03-19T20:01:53.067Z,92402.63
2018-03-19T20:04:20.622Z,92407.61
2018-03-19T20:06:48.207Z,92396.50
2018-03-19T20:09:15.750Z,92400.98
2018-03-19T20:11:43.332Z,92393.86
2018-03-19T20:14:11.245Z,92397.57
2018-03-19T20:16:38.787Z,92397.57
2018-03-19T20:19:06.327Z,92395.67
2018-03-19T20:21:34.221Z,92396.44
2018-03-19T20:24:01.771Z,92393.50
2018-03-19T20:26:29.325Z,92388.55
2018-03-19T20:28:57.003Z,92390.61
2018-03-19T20:31:24.539Z,92391.78
2018-03-19T20:33:52.091Z,92388.44
2018-03-19T20:36:19.701Z,92386.31
2018-03-19T20:38:47.251Z,92387.91
2018-03-19T20:41:14.794Z,92376.46
2018-03-19T20:43:42.515Z,92385.02
2018-03-19T20:46:10.091Z,92383.05
2018-03-19T20:48:37.655Z,92381.59
2018-03-19T20:51:05.245Z,92378.41
2018-03-19T20:53:32.803Z,92388.83
2018-03-19T20:56:00.348Z,92385.29
2018-03-19T20:58:27.891Z,92382.87
2018-03-19T21:00:55.451Z,92371.80
2018-03-19T21:03:23.175Z,92379.03
2018-03-19T21:05:50.735Z,92377.33
2018-03-19T21:08:18.299Z,92378.09
2018-03-19T21:10:46.172Z,92373.56
2018-03-19T21:13:13.720Z,92378.27
2018-03-19T21:15:41.267Z,92368.06
2018-03-19T21:18:08.871Z,92365.48
2018-03-19T21:20:36.420Z,92361.77
2018-03-19T21:23:03.986Z,92363.37
2018-03-19T21:25:31.569Z,92364.14
2018-03-19T21:27:59.188Z,92368.67
2018-03-19T21:30:26.786Z,92370.36
2018-03-19T21:32:54.390Z,92377.43
2018-03-19T21:35:21.964Z,92373.80
2018-03-19T21:37:49.530Z,92376.55
2018-03-19T21:40:17.119Z,92367.70
2018-03-19T21:42:44.658Z,92370.95
2018-03-19T21:45:12.219Z,92371.36
2018-03-19T21:47:39.983Z,92372.25
2018-03-19T21:50:07.560Z,92366.47
2018-03-19T21:52:35.110Z,92368.41
2018-03-19T21:55:03.010Z,92368.72
2018-03-19T21:57:30.564Z,92366.41
2018-03-19T21:59:58.111Z,92363.00
2018-03-19T22:02:25.685Z,92365.73
2018-03-19T22:04:53.232Z,92355.66
2018-03-19T22:07:20.795Z,92358.86
2018-03-19T22:09:48.483Z,92353.44
2018-03-19T22:12:16.054Z,92352.91
2018-03-19T22:14:43.607Z,92352.38
2018-03-19T22:17:11.206Z,92354.38
2018-03-19T22:19:38.746Z,92354.73
2018-03-19T22:22:06.293Z,92351.08
2018-03-19T22:24:34.158Z,92353.42
2018-03-19T22:27:01.706Z,92351.03
2018-03-19T22:29:29.246Z,92350.25
2018-03-19T22:31:56.939Z,92346.02
2018-03-19T22:34:24.511Z,92353.03
2018-03-19T22:36:52.058Z,92344.47
2018-03-19T22:39:19.655Z,92342.82
2018-03-19T22:41:47.198Z,92334.48
2018-03-19T22:44:14.746Z,92336.00
2018-03-19T22:46:42.314Z,92328.50
2018-03-19T22:49:09.864Z,92328.45
2018-03-19T22:51:37.391Z,92323.51
2018-03-19T22:54:04.961Z,92325.45
2018-03-19T22:56:32.512Z,92321.80
2018-03-19T22:59:00.051Z,92320.45
2018-03-19T23:01:27.822Z,92326.03
2018-03-19T23:03:55.364Z,92323.88
2018-03-19T23:06:22.912Z,92323.94
2018-03-19T23:08:50.493Z,92332.23
2018-03-19T23:11:18.098Z,92332.17
2018-03-19T23:13:45.639Z,92332.83
2018-03-19T23:16:13.207Z,92336.28
2018-03-19T23:18:40.754Z,92344.06
2018-03-19T23:21:08.294Z,92353.03
2018-03-19T23:23:35.877Z,92350.55
2018-03-19T23:26:03.429Z,92340.07
2018-03-19T23:28:30.980Z,92332.92
2018-03-19T23:30:58.603Z,92330.10
2018-03-19T23:33:26.159Z,92330.69
2018-03-19T23:35:53.950Z,92330.21
2018-03-19T23:38:21.669Z,92324.89
2018-03-19T23:40:49.251Z,92335.11
2018-03-19T23:43:16.807Z,92338.45
2018-03-19T23:45:44.494Z,92335.88
2018-03-19T23:48:12.021Z,92338.27
2018-03-19T23:50:39.550Z,92339.38
2018-03-19T23:53:07.123Z,92330.77
2018-03-19T23:55:34.667Z,92332.95
2018-03-19T23:58:02.215Z,92335.85
